createdAt,value
2023-08-07T00:01:42.899Z,99696.19
2023-08-07T00:04:09.592Z,99695.34
2023-08-07T00:06:36.342Z,99694.47
2023-08-07T00:09:02.987Z,99690.13
2023-08-07T00:11:30.031Z,99683.94
2023-08-07T00:13:56.744Z,99699.09
2023-08-07T00:16:23.411Z,99699.09
2023-08-07T00:18:50.150Z,99694.72
2023-08-07T00:21:16.820Z,99694.72
2023-08-07T00:23:43.420Z,99693.00
2023-08-07T00:26:10.040Z,99696.53
2023-08-07T00:28:36.738Z,99703.66
2023-08-07T00:31:03.491Z,99693.97
2023-08-07T00:33:30.119Z,99695.78
2023-08-07T00:35:57.194Z,99696.63
2023-08-07T00:38:23.873Z,99705.47
2023-08-07T00:40:50.537Z,99702.94
2023-08-07T00:43:17.177Z,99703.91
2023-08-07T00:45:44.773Z,99702.09
2023-08-07T00:48:11.877Z,99704.88
2023-08-07T00:50:47.161Z,99704.88
2023-08-07T00:53:14.681Z,99697.81
2023-08-07T00:55:41.490Z,99696.87
2023-08-07T00:58:08.095Z,99698.66
2023-08-07T01:00:34.870Z,99693.34
2023-08-07T01:03:03.759Z,99694.31
2023-08-07T01:05:30.570Z,99700.47
2023-08-07T01:07:57.321Z,99708.47
2023-08-07T01:10:29.097Z,99705.94
2023-08-07T01:13:00.142Z,99707.62
2023-08-07T01:15:29.266Z,99703.37
2023-08-07T01:17:58.675Z,99705.19
2023-08-07T01:20:25.339Z,99704.28
2023-08-07T01:22:52.054Z,99695.44
2023-08-07T01:25:18.802Z,99700.78
2023-08-07T01:27:57.266Z,99711.44
2023-08-07T01:30:44.085Z,99713.25
2023-08-07T01:33:27.219Z,99710.59
2023-08-07T01:35:58.084Z,99715.94
2023-08-07T01:38:25.902Z,99720.41
2023-08-07T01:40:52.772Z,99720.53
2023-08-07T01:43:20.254Z,99721.50
2023-08-07T01:45:46.922Z,99718.84
2023-08-07T01:48:13.690Z,99722.34
2023-08-07T01:50:40.349Z,99721.50
2023-08-07T01:53:07.010Z,99717.09
2023-08-07T01:55:33.726Z,99723.19
2023-08-07T01:58:00.406Z,99714.44
2023-08-07T02:00:27.077Z,99718.91
2023-08-07T02:02:54.241Z,99716.25
2023-08-07T02:05:21.089Z,99717.09
2023-08-07T02:07:47.700Z,99710.91
2023-08-07T02:10:14.414Z,99719.75
2023-08-07T02:12:41.123Z,99727.75
2023-08-07T02:15:08.193Z,99729.56
2023-08-07T02:17:35.047Z,99718.06
2023-08-07T02:20:01.707Z,99728.72
2023-08-07T02:22:28.377Z,99724.38
2023-08-07T02:24:55.099Z,99729.69
2023-08-07T02:27:21.721Z,99728.84
2023-08-07T02:29:48.433Z,99730.66
2023-08-07T02:32:15.044Z,99731.50
2023-08-07T02:34:41.771Z,99728.09
2023-08-07T02:37:08.359Z,99732.56
2023-08-07T02:39:35.088Z,99725.53
2023-08-07T02:42:01.866Z,99722.03
2023-08-07T02:44:28.645Z,99724.56
2023-08-07T02:46:55.708Z,99724.56
2023-08-07T02:49:22.759Z,99732.56
2023-08-07T02:51:49.453Z,99729.19
2023-08-07T02:54:16.191Z,99733.66
2023-08-07T02:56:43.113Z,99731.97
2023-08-07T02:59:10.012Z,99732.81
2023-08-07T03:01:36.721Z,99729.28
2023-08-07T03:04:05.799Z,99731.09
2023-08-07T03:06:32.488Z,99731.97
2023-08-07T03:08:59.140Z,99736.41
2023-08-07T03:11:25.865Z,99729.38
2023-08-07T03:13:52.570Z,99733.03
2023-08-07T03:16:19.480Z,99722.34
2023-08-07T03:18:46.260Z,99728.53
2023-08-07T03:21:12.953Z,99723.19
2023-08-07T03:23:39.614Z,99716.19
2023-08-07T03:26:18.285Z,99729.50
2023-08-07T03:28:48.336Z,99719.81
2023-08-07T03:31:15.714Z,99726.00
2023-08-07T03:33:42.456Z,99725.13
2023-08-07T03:36:10.299Z,99725.13
2023-08-07T03:38:37.076Z,99733.13
2023-08-07T03:41:04.515Z,99727.91
2023-08-07T03:43:31.157Z,99732.38
2023-08-07T03:46:00.528Z,99733.22
2023-08-07T03:48:29.567Z,99735.88
2023-08-07T03:51:12.222Z,99742.19
2023-08-07T03:53:39.093Z,99745.69
2023-08-07T03:56:07.925Z,99738.66
2023-08-07T03:58:37.782Z,99747.63
2023-08-07T04:01:04.562Z,99748.47
2023-08-07T04:03:31.546Z,99740.50
2023-08-07T04:05:58.226Z,99753.94
2023-08-07T04:08:24.957Z,99759.25
2023-08-07T04:11:02.182Z,99759.25
2023-08-07T04:13:29.204Z,99762.84
2023-08-07T04:15:56.200Z,99765.53
2023-08-07T04:18:23.263Z,99766.41
2023-08-07T04:20:51.511Z,99768.19
2023-08-07T04:23:18.148Z,99773.50
2023-08-07T04:25:45.301Z,99767.34
2023-08-07T04:28:11.924Z,99774.47
2023-08-07T04:30:38.621Z,99775.44
2023-08-07T04:33:06.090Z,99775.44
2023-08-07T04:35:32.785Z,99772.91
2023-08-07T04:37:59.386Z,99787.06
2023-08-07T04:40:26.086Z,99773.84
2023-08-07T04:42:52.886Z,99776.50
2023-08-07T04:45:19.618Z,99788.88
2023-08-07T04:47:46.999Z,99781.81
2023-08-07T04:50:13.909Z,99776.62
2023-08-07T04:52:40.632Z,99772.13
2023-08-07T04:55:07.792Z,99773.09
2023-08-07T04:57:36.509Z,99777.47
2023-08-07T05:00:03.540Z,99787.28
2023-08-07T05:02:30.297Z,99777.59
2023-08-07T05:04:57.000Z,99773.22
2023-08-07T05:07:23.731Z,99783.03
2023-08-07T05:09:51.989Z,99779.41
2023-08-07T05:12:18.683Z,99775.88
2023-08-07T05:14:45.318Z,99777.59
2023-08-07T05:17:13.212Z,99773.31
2023-08-07T05:19:39.835Z,99779.16
2023-08-07T05:22:06.634Z,99775.22
2023-08-07T05:24:39.829Z,99781.84
2023-08-07T05:27:09.776Z,99769.91
2023-08-07T05:29:44.260Z,99774.59
2023-08-07T05:32:14.868Z,99776.31
2023-08-07T05:34:41.826Z,99792.06
2023-08-07T05:37:09.071Z,99782.69
2023-08-07T05:39:36.113Z,99788.75
2023-08-07T05:42:02.835Z,99788.00
2023-08-07T05:44:30.170Z,99802.19
2023-08-07T05:46:56.950Z,99802.47
2023-08-07T05:49:26.907Z,99810.75
2023-08-07T05:51:54.825Z,99808.59
2023-08-07T05:54:21.973Z,99806.88
2023-08-07T05:56:48.671Z,99810.72
2023-08-07T05:59:16.402Z,99822.62
2023-08-07T06:01:43.146Z,99823.66
2023-08-07T06:04:10.299Z,99832.81
2023-08-07T06:06:37.504Z,99833.97
2023-08-07T06:09:04.969Z,99843.66
2023-08-07T06:11:32.064Z,99843.38
2023-08-07T06:13:58.991Z,99850.38
2023-08-07T06:16:25.960Z,99847.84
2023-08-07T06:18:52.738Z,99861.63
2023-08-07T06:21:20.520Z,99862.59
2023-08-07T06:23:47.959Z,99870.47
2023-08-07T06:26:14.668Z,99868.56
2023-08-07T06:28:41.253Z,99875.38
2023-08-07T06:31:08.811Z,99873.69
2023-08-07T06:33:35.680Z,99864.34
2023-08-07T06:36:02.920Z,99873.50
2023-08-07T06:38:29.659Z,99872.34
2023-08-07T06:40:56.464Z,99881.06
2023-08-07T06:43:23.179Z,99888.88
2023-08-07T06:45:57.076Z,99894.84
2023-08-07T06:48:23.867Z,99902.19
2023-08-07T06:50:51.139Z,99902.31
2023-08-07T06:53:17.854Z,99901.34
2023-08-07T06:55:44.562Z,99892.44
2023-08-07T06:58:11.361Z,99902.97
2023-08-07T07:00:38.241Z,99906.34
2023-08-07T07:03:05.102Z,99901.75
2023-08-07T07:05:33.006Z,99904.28
2023-08-07T07:07:59.846Z,99909.44
2023-08-07T07:10:26.493Z,99900.13
2023-08-07T07:12:53.385Z,99889.56
2023-08-07T07:15:20.767Z,99894.03
2023-08-07T07:17:47.868Z,99900.19
2023-08-07T07:20:14.862Z,99898.34
2023-08-07T07:22:44.834Z,99898.34
2023-08-07T07:25:11.614Z,99907.41
2023-08-07T07:27:38.278Z,99909.78
2023-08-07T07:30:11.440Z,99908.09
2023-08-07T07:32:38.249Z,99911.78
2023-08-07T07:35:05.490Z,99907.19
2023-08-07T07:37:33.522Z,99916.31
2023-08-07T07:40:00.672Z,99913.72
2023-08-07T07:42:30.530Z,99906.03
2023-08-07T07:44:57.257Z,99919.59
2023-08-07T07:47:23.955Z,99914.50
2023-08-07T07:49:59.295Z,99922.56
2023-08-07T07:52:25.970Z,99930.56
2023-08-07T07:54:52.582Z,99944.00
2023-08-07T07:57:19.254Z,99931.53
2023-08-07T07:59:45.980Z,99935.88
2023-08-07T08:02:12.733Z,99943.81
2023-08-07T08:04:40.873Z,99936.75
2023-08-07T08:07:07.684Z,99948.16
2023-08-07T08:09:35.495Z,99952.63
2023-08-07T08:12:02.190Z,99954.34
2023-08-07T08:14:31.573Z,99959.56
2023-08-07T08:17:01.998Z,99960.53
2023-08-07T08:19:33.170Z,99958.81
2023-08-07T08:22:11.513Z,99970.31
2023-08-07T08:24:38.228Z,99967.66
2023-08-07T08:27:07.539Z,99967.66
2023-08-07T08:29:34.192Z,99968.50
2023-08-07T08:32:00.829Z,99983.66
2023-08-07T08:34:28.113Z,99979.16
2023-08-07T08:36:55.050Z,99984.50
2023-08-07T08:39:21.882Z,99985.34
2023-08-07T08:41:51.498Z,99988.00
2023-08-07T08:44:18.450Z,99988.78
2023-08-07T08:46:45.246Z,99990.59
2023-08-07T08:49:14.617Z,100002.09
2023-08-07T08:51:41.426Z,99996.78
2023-08-07T08:54:08.926Z,99995.81
2023-08-07T08:56:35.557Z,99999.44
2023-08-07T08:59:02.418Z,100009.13
2023-08-07T09:01:29.280Z,100003.91
2023-08-07T09:03:56.091Z,100002.00
2023-08-07T09:06:22.718Z,100017.00
2023-08-07T09:08:51.012Z,100013.50
2023-08-07T09:11:17.691Z,100007.22
2023-08-07T09:13:44.415Z,100013.37
2023-08-07T09:16:11.087Z,100017.78
2023-08-07T09:18:37.759Z,100014.25
2023-08-07T09:21:05.274Z,100016.94
2023-08-07T09:23:31.877Z,100017.78
2023-08-07T09:26:05.426Z,100020.34
2023-08-07T09:28:32.912Z,100022.16
2023-08-07T09:31:00.215Z,100024.69
2023-08-07T09:33:27.588Z,100015.00
2023-08-07T09:35:54.630Z,100011.28
2023-08-07T09:38:24.033Z,100009.38
2023-08-07T09:40:50.938Z,100023.56
2023-08-07T09:43:23.878Z,100028.78
2023-08-07T09:45:53.371Z,100025.81
2023-08-07T09:48:26.663Z,100024.88
2023-08-07T09:50:55.668Z,100036.06
2023-08-07T09:53:30.960Z,100039.59
2023-08-07T09:55:57.676Z,100032.56
2023-08-07T09:58:25.032Z,100038.94
2023-08-07T10:00:54.270Z,100050.44
2023-08-07T10:03:21.237Z,100056.84
2023-08-07T10:05:47.964Z,100045.41
2023-08-07T10:08:14.620Z,100058.75
2023-08-07T10:10:41.727Z,100043.72
2023-08-07T10:13:08.426Z,100056.94
2023-08-07T10:15:37.829Z,100058.63
2023-08-07T10:18:05.771Z,100057.03
2023-08-07T10:20:35.635Z,100053.41
2023-08-07T10:23:09.366Z,100056.06
2023-08-07T10:25:37.098Z,100061.41
2023-08-07T10:28:04.094Z,100066.63
2023-08-07T10:30:30.762Z,100062.38
2023-08-07T10:32:57.586Z,100076.34
2023-08-07T10:35:30.902Z,100072.84
2023-08-07T10:38:09.580Z,100069.22
2023-08-07T10:41:02.577Z,100069.22
2023-08-07T10:43:29.853Z,100069.41
2023-08-07T10:46:07.020Z,100065.69
2023-08-07T10:48:48.295Z,100074.84
2023-08-07T10:51:17.115Z,100073.31
2023-08-07T10:53:48.615Z,100080.47
2023-08-07T10:56:31.127Z,100077.81
2023-08-07T10:58:59.892Z,100076.94
2023-08-07T11:01:32.315Z,100076.09
2023-08-07T11:04:00.451Z,100093.78
2023-08-07T11:06:32.594Z,100089.41
2023-08-07T11:09:04.799Z,100099.13
2023-08-07T11:11:42.143Z,100103.59
2023-08-07T11:14:09.732Z,100094.53
2023-08-07T11:16:36.636Z,100100.81
2023-08-07T11:19:03.862Z,100097.31
2023-08-07T11:21:34.561Z,100096.22
2023-08-07T11:24:02.219Z,100096.16
2023-08-07T11:26:29.374Z,100083.56
2023-08-07T11:28:59.102Z,100100.41
2023-08-07T11:31:26.388Z,100101.19
2023-08-07T11:33:53.885Z,100092.34
2023-08-07T11:36:20.679Z,100102.03
2023-08-07T11:38:47.729Z,100105.56
2023-08-07T11:41:15.715Z,100103.84
2023-08-07T11:43:42.640Z,100105.66
2023-08-07T11:46:10.856Z,100116.09
2023-08-07T11:48:39.333Z,100105.56
2023-08-07T11:51:06.286Z,100112.69
2023-08-07T11:53:33.729Z,100112.69
2023-08-07T11:56:05.276Z,100114.50
2023-08-07T11:58:39.233Z,100111.00
2023-08-07T12:01:18.647Z,100115.47
2023-08-07T12:03:56.313Z,100124.41
2023-08-07T12:06:26.275Z,100125.25
2023-08-07T12:08:57.278Z,100121.72
2023-08-07T12:11:24.241Z,100121.66
2023-08-07T12:13:51.033Z,100120.81
2023-08-07T12:16:18.276Z,100112.81
2023-08-07T12:18:51.381Z,100111.84
2023-08-07T12:21:24.004Z,100119.84
2023-08-07T12:23:51.455Z,100115.37
2023-08-07T12:26:18.393Z,100112.69
2023-08-07T12:28:45.084Z,100124.22
2023-08-07T12:31:11.831Z,100118.03
2023-08-07T12:33:38.530Z,100124.22
2023-08-07T12:36:05.432Z,100130.38
2023-08-07T12:38:32.409Z,100130.38
2023-08-07T12:40:59.166Z,100127.72
2023-08-07T12:43:26.625Z,100119.72
2023-08-07T12:45:54.510Z,100128.56
2023-08-07T12:48:40.823Z,100134.75
2023-08-07T12:51:07.522Z,100132.09
2023-08-07T12:53:34.338Z,100142.75
2023-08-07T12:56:01.032Z,100138.28
2023-08-07T12:58:30.558Z,100136.50
2023-08-07T13:00:57.732Z,100140.94
2023-08-07T13:03:24.698Z,100150.69
2023-08-07T13:05:51.407Z,100145.34
2023-08-07T13:08:18.117Z,100143.59
2023-08-07T13:10:46.247Z,100153.34
2023-08-07T13:13:13.989Z,100162.19
2023-08-07T13:15:40.655Z,100160.38
2023-08-07T13:18:07.475Z,100155.03
2023-08-07T13:20:35.317Z,100156.00
2023-08-07T13:23:02.760Z,100156.84
2023-08-07T13:25:29.404Z,100155.91
2023-08-07T13:27:56.070Z,100156.84
2023-08-07T13:30:22.828Z,100153.34
2023-08-07T13:32:49.666Z,100159.53
2023-08-07T13:35:16.354Z,100163.88
2023-08-07T13:37:43.057Z,100172.75
2023-08-07T13:40:12.610Z,100171.03
2023-08-07T13:42:39.984Z,100173.69
2023-08-07T13:45:08.432Z,100179.03
2023-08-07T13:47:35.148Z,100183.41
2023-08-07T13:50:02.541Z,100190.53
2023-08-07T13:52:31.438Z,100184.34
2023-08-07T13:54:58.509Z,100188.72
2023-08-07T13:57:25.425Z,100196.84
2023-08-07T13:59:52.100Z,100195.88
2023-08-07T14:02:18.999Z,100191.41
2023-08-07T14:04:46.669Z,100195.88
2023-08-07T14:07:13.707Z,100212.72
2023-08-07T14:09:40.765Z,100211.88
2023-08-07T14:12:08.196Z,100221.56
2023-08-07T14:14:34.957Z,100219.84
2023-08-07T14:17:03.224Z,100219.84
2023-08-07T14:19:30.251Z,100216.22
2023-08-07T14:21:56.949Z,100219.84
2023-08-07T14:24:23.642Z,100226.03
2023-08-07T14:26:50.273Z,100230.53
2023-08-07T14:29:16.940Z,100234.88
2023-08-07T14:31:43.565Z,100241.06
2023-08-07T14:34:10.337Z,100240.22
2023-08-07T14:36:37.708Z,100233.19
2023-08-07T14:39:04.469Z,100234.03
2023-08-07T14:41:31.135Z,100238.50
2023-08-07T14:43:57.894Z,100241.19
2023-08-07T14:46:25.153Z,100232.31
2023-08-07T14:48:52.030Z,100245.66
2023-08-07T14:51:18.763Z,100232.31
2023-08-07T14:53:45.584Z,100234.88
2023-08-07T14:56:12.252Z,100230.53
2023-08-07T14:58:39.000Z,100243.00
2023-08-07T15:01:05.824Z,100244.69
2023-08-07T15:03:32.526Z,100244.69
2023-08-07T15:05:59.397Z,100247.37
2023-08-07T15:08:26.100Z,100247.37
2023-08-07T15:10:54.296Z,100246.41
2023-08-07T15:13:21.310Z,100242.03
2023-08-07T15:15:48.098Z,100243.00
2023-08-07T15:18:14.870Z,100238.50
2023-08-07T15:20:41.829Z,100250.03
2023-08-07T15:23:08.530Z,100258.03
2023-08-07T15:25:35.313Z,100255.34
2023-08-07T15:28:03.947Z,100252.78
2023-08-07T15:30:31.807Z,100251.00
2023-08-07T15:32:59.008Z,100253.75
2023-08-07T15:35:27.143Z,100249.28
2023-08-07T15:37:54.174Z,100246.63
2023-08-07T15:40:21.145Z,100250.22
2023-08-07T15:42:49.002Z,100246.69
2023-08-07T15:45:15.710Z,100243.94
2023-08-07T15:47:42.517Z,100246.69
2023-08-07T15:50:10.237Z,100240.50
2023-08-07T15:52:37.132Z,100243.16
2023-08-07T15:55:03.944Z,100253.84
2023-08-07T15:57:30.675Z,100250.31
2023-08-07T15:59:57.580Z,100253.94
2023-08-07T16:02:24.473Z,100250.41
2023-08-07T16:04:51.169Z,100241.56
2023-08-07T16:07:17.831Z,100251.38
2023-08-07T16:09:44.517Z,100245.16
2023-08-07T16:12:11.688Z,100244.31
2023-08-07T16:14:39.238Z,100247.84
2023-08-07T16:17:06.280Z,100235.38
2023-08-07T16:19:33.501Z,100233.66
2023-08-07T16:22:00.465Z,100238.13
2023-08-07T16:24:27.091Z,100238.97
2023-08-07T16:26:53.848Z,100238.97
2023-08-07T16:29:20.566Z,100236.31
2023-08-07T16:31:47.269Z,100246.12
2023-08-07T16:34:13.992Z,100238.97
2023-08-07T16:36:40.806Z,100248.91
2023-08-07T16:39:07.428Z,100245.28
2023-08-07T16:41:34.090Z,100240.78
2023-08-07T16:44:00.993Z,100245.28
2023-08-07T16:46:27.851Z,100245.38
2023-08-07T16:48:54.872Z,100238.22
2023-08-07T16:51:21.571Z,100248.13
2023-08-07T16:53:49.242Z,100248.03
2023-08-07T16:56:16.434Z,100252.59
2023-08-07T16:58:45.918Z,100241.09
2023-08-07T17:01:13.286Z,100240.13
2023-08-07T17:03:40.127Z,100242.78
2023-08-07T17:06:06.762Z,100257.06
2023-08-07T17:08:34.591Z,100245.56
2023-08-07T17:11:02.096Z,100251.84
2023-08-07T17:13:28.811Z,100260.69
2023-08-07T17:15:55.509Z,100264.22
2023-08-07T17:18:22.153Z,100266.97
2023-08-07T17:20:48.771Z,100257.19
2023-08-07T17:23:15.477Z,100261.66
2023-08-07T17:25:42.298Z,100254.63
2023-08-07T17:28:09.004Z,100255.47
2023-08-07T17:30:35.732Z,100264.31
2023-08-07T17:33:02.548Z,100258.13
2023-08-07T17:35:30.917Z,100267.94
2023-08-07T17:37:57.737Z,100262.59
2023-08-07T17:40:25.119Z,100266.19
2023-08-07T17:42:51.993Z,100268.88
2023-08-07T17:45:18.658Z,100264.50
2023-08-07T17:47:45.381Z,100269.81
2023-08-07T17:50:12.163Z,100269.81
2023-08-07T17:52:39.113Z,100272.50
2023-08-07T17:55:06.641Z,100266.31
2023-08-07T17:57:33.360Z,100273.44
2023-08-07T18:00:00.015Z,100277.91
2023-08-07T18:02:26.688Z,100275.38
2023-08-07T18:04:53.528Z,100287.72
2023-08-07T18:07:20.190Z,100279.81
2023-08-07T18:09:46.863Z,100290.47
2023-08-07T18:12:13.550Z,100298.44
2023-08-07T18:14:40.664Z,100302.94
2023-08-07T18:17:07.347Z,100306.56
2023-08-07T18:19:33.968Z,100300.38
2023-08-07T18:22:00.905Z,100311.03
2023-08-07T18:24:30.742Z,100312.72
2023-08-07T18:26:57.681Z,100309.22
2023-08-07T18:29:24.593Z,100315.50
2023-08-07T18:31:51.448Z,100319.13
2023-08-07T18:34:18.677Z,100315.50
2023-08-07T18:36:46.894Z,100326.25
2023-08-07T18:39:13.546Z,100328.94
2023-08-07T18:41:42.914Z,100334.25
2023-08-07T18:44:10.653Z,100344.91
2023-08-07T18:46:38.883Z,100336.13
2023-08-07T18:49:05.676Z,100344.97
2023-08-07T18:51:32.337Z,100348.59
2023-08-07T18:53:59.049Z,100345.94
2023-08-07T18:56:25.818Z,100353.94
2023-08-07T18:58:52.877Z,100366.28
2023-08-07T19:01:19.574Z,100355.75
2023-08-07T19:03:46.452Z,100371.81
2023-08-07T19:06:13.192Z,100372.75
2023-08-07T19:08:39.975Z,100376.25
2023-08-07T19:11:06.874Z,100379.81
2023-08-07T19:13:33.529Z,100383.41
2023-08-07T19:16:00.285Z,100386.06
2023-08-07T19:18:26.984Z,100393.19
2023-08-07T19:20:53.675Z,100401.19
2023-08-07T19:23:20.396Z,100398.62
2023-08-07T19:25:47.048Z,100398.62
2023-08-07T19:28:13.983Z,100398.62
2023-08-07T19:30:44.150Z,100395.12
2023-08-07T19:33:16.143Z,100397.88
2023-08-07T19:35:42.812Z,100395.12
2023-08-07T19:38:09.516Z,100379.22
2023-08-07T19:40:36.178Z,100392.56
2023-08-07T19:43:03.253Z,100389.97
2023-08-07T19:45:29.899Z,100396.13
2023-08-07T19:47:56.629Z,100397.88
2023-08-07T19:50:23.359Z,100392.63
2023-08-07T19:52:50.173Z,100388.25
2023-08-07T19:55:18.084Z,100385.69
2023-08-07T19:57:44.915Z,100394.53
2023-08-07T20:00:12.276Z,100396.25
2023-08-07T20:02:38.941Z,100398.06
2023-08-07T20:05:06.724Z,100399.00
2023-08-07T20:07:33.416Z,100397.25
2023-08-07T20:10:00.148Z,100391.09
2023-08-07T20:12:27.196Z,100391.94
2023-08-07T20:14:53.896Z,100387.56
2023-08-07T20:17:20.667Z,100391.94
2023-08-07T20:19:48.064Z,100386.72
2023-08-07T20:22:14.907Z,100394.69
2023-08-07T20:24:41.581Z,100394.81
2023-08-07T20:27:08.248Z,100402.78
2023-08-07T20:29:34.903Z,100400.97
2023-08-07T20:32:02.780Z,100400.13
2023-08-07T20:34:29.531Z,100408.12
2023-08-07T20:36:56.150Z,100393.09
2023-08-07T20:39:23.687Z,100407.25
2023-08-07T20:41:50.465Z,100416.09
2023-08-07T20:44:17.119Z,100412.66
2023-08-07T20:46:43.801Z,100410.84
2023-08-07T20:49:10.540Z,100414.47
2023-08-07T20:51:37.354Z,100414.47
2023-08-07T20:54:04.137Z,100413.63
2023-08-07T20:56:30.799Z,100420.75
2023-08-07T20:58:57.826Z,100403.91
2023-08-07T21:01:25.154Z,100405.72
2023-08-07T21:03:51.922Z,100411.91
2023-08-07T21:06:18.615Z,100411.91
2023-08-07T21:08:45.262Z,100410.19
2023-08-07T21:11:12.022Z,100404.88
2023-08-07T21:13:39.653Z,100408.47
2023-08-07T21:16:06.277Z,100413.81
2023-08-07T21:18:32.924Z,100402.19
2023-08-07T21:20:59.523Z,100403.16
2023-08-07T21:23:26.211Z,100409.41
2023-08-07T21:25:53.313Z,100414.72
2023-08-07T21:28:20.095Z,100414.72
2023-08-07T21:30:46.844Z,100411.22
2023-08-07T21:33:13.567Z,100416.53
2023-08-07T21:35:40.229Z,100413.03
2023-08-07T21:38:06.909Z,100413.03
2023-08-07T21:40:33.767Z,100406.00
2023-08-07T21:43:00.605Z,100415.78
2023-08-07T21:45:27.264Z,100416.63
2023-08-07T21:47:54.126Z,100414.94
2023-08-07T21:50:21.745Z,100415.78
2023-08-07T21:52:48.473Z,100416.72
2023-08-07T21:55:15.104Z,100421.16
2023-08-07T21:57:42.206Z,100427.34
2023-08-07T22:00:15.023Z,100430.91
2023-08-07T22:02:42.260Z,100431.78
2023-08-07T22:05:09.951Z,100435.41
2023-08-07T22:07:37.952Z,100433.72
2023-08-07T22:10:08.692Z,100438.06
2023-08-07T22:12:35.405Z,100443.41
2023-08-07T22:15:03.217Z,100447.00
2023-08-07T22:17:29.940Z,100432.84
2023-08-07T22:20:04.850Z,100430.19
2023-08-07T22:22:33.069Z,100440.94
2023-08-07T22:24:59.899Z,100437.31
2023-08-07T22:27:26.761Z,100435.62
2023-08-07T22:29:53.504Z,100435.62
2023-08-07T22:32:20.312Z,100435.69
2023-08-07T22:34:47.156Z,100436.53
2023-08-07T22:37:13.820Z,100431.31
2023-08-07T22:39:40.555Z,100432.16
2023-08-07T22:42:07.504Z,100442.81
2023-08-07T22:44:34.349Z,100455.28
2023-08-07T22:47:01.344Z,100461.44
2023-08-07T22:49:29.828Z,100458.03
2023-08-07T22:51:57.842Z,100463.25
2023-08-07T22:54:26.073Z,100460.69
2023-08-07T22:56:55.586Z,100462.50
2023-08-07T22:59:22.291Z,100463.34
2023-08-07T23:01:48.997Z,100461.66
2023-08-07T23:04:15.703Z,100461.66
2023-08-07T23:06:42.323Z,100462.56
2023-08-07T23:09:09.003Z,100468.75
2023-08-07T23:11:35.758Z,100462.56
2023-08-07T23:14:02.467Z,100463.53
2023-08-07T23:16:29.130Z,100468.84
2023-08-07T23:18:55.945Z,100475.13
2023-08-07T23:21:22.601Z,100470.75
2023-08-07T23:23:49.430Z,100472.47
2023-08-07T23:26:16.337Z,100476.06
2023-08-07T23:28:42.985Z,100472.56
2023-08-07T23:31:09.642Z,100470.75
2023-08-07T23:33:36.271Z,100478.78
2023-08-07T23:36:03.080Z,100476.12
2023-08-07T23:38:29.742Z,100484.13
2023-08-07T23:40:56.349Z,100483.28
2023-08-07T23:43:23.013Z,100490.41
2023-08-07T23:45:49.742Z,100491.25
2023-08-07T23:48:16.467Z,100487.72
2023-08-07T23:50:43.237Z,100485.06
2023-08-07T23:53:09.957Z,100492.22
2023-08-07T23:55:36.657Z,100485.16
2023-08-07T23:58:03.389Z,100473.56
